createdAt,value
2022-09-20T00:00:34.473Z,99.99
2022-09-20T00:01:34.627Z,99.99
2022-09-20T00:02:34.873Z,99.99
2022-09-20T00:03:34.926Z,99.99
2022-09-20T00:04:35.153Z,99.99
2022-09-20T00:05:35.245Z,99.99
2022-09-20T00:06:35.386Z,99.99
2022-09-20T00:07:35.527Z,99.99
2022-09-20T00:08:35.667Z,99.99
2022-09-20T00:09:35.802Z,99.99
2022-09-20T00:10:36.009Z,99.99
2022-09-20T00:11:36.083Z,99.99
2022-09-20T00:12:36.211Z,99.99
2022-09-20T00:13:36.382Z,99.99
2022-09-20T00:14:36.545Z,99.99
2022-09-20T00:15:36.703Z,99.99
2022-09-20T00:16:36.884Z,99.99
2022-09-20T00:17:36.938Z,99.99
2022-09-20T00:18:37.068Z,99.99
2022-09-20T00:19:37.200Z,99.99
2022-09-20T00:20:37.354Z,99.99
2022-09-20T00:21:37.463Z,99.99
2022-09-20T00:22:37.684Z,99.99
2022-09-20T00:23:38.464Z,99.99
2022-09-20T00:24:37.872Z,99.99
2022-09-20T00:25:37.941Z,99.99
2022-09-20T00:26:38.074Z,99.99
2022-09-20T00:27:38.255Z,99.99
2022-09-20T00:28:38.337Z,99.99
2022-09-20T00:29:38.429Z,99.99
2022-09-20T00:30:38.578Z,99.99
2022-09-20T00:31:38.740Z,99.99
2022-09-20T00:32:38.802Z,99.99
2022-09-20T00:33:38.977Z,99.99
2022-09-20T00:34:39.091Z,99.99
2022-09-20T00:35:39.243Z,99.99
2022-09-20T00:36:39.389Z,99.99
2022-09-20T00:37:39.497Z,99.99
2022-09-20T00:38:39.642Z,99.99
2022-09-20T00:39:39.791Z,99.99
2022-09-20T00:40:40.216Z,99.99
2022-09-20T00:41:40.018Z,99.99
2022-09-20T00:42:40.130Z,99.99
2022-09-20T00:43:40.251Z,99.99
2022-09-20T00:44:40.370Z,99.99
2022-09-20T00:45:40.572Z,99.99
2022-09-20T00:46:40.611Z,99.99
2022-09-20T00:47:40.771Z,99.99
2022-09-20T00:48:40.911Z,99.99
2022-09-20T00:49:41.079Z,99.99
2022-09-20T00:50:41.190Z,99.99
2022-09-20T00:51:41.351Z,99.99
2022-09-20T00:52:41.560Z,99.99
2022-09-20T00:53:41.639Z,99.99
2022-09-20T00:54:41.790Z,99.99
2022-09-20T00:55:41.930Z,99.99
2022-09-20T00:56:42.087Z,99.99
2022-09-20T00:57:42.250Z,99.99
2022-09-20T00:58:42.370Z,99.99
2022-09-20T00:59:42.486Z,99.99
2022-09-20T01:00:42.694Z,99.99
2022-09-20T01:01:42.805Z,99.99
2022-09-20T01:02:42.932Z,99.99
2022-09-20T01:03:43.060Z,99.99
2022-09-20T01:04:43.188Z,99.99
2022-09-20T01:05:43.310Z,99.99
2022-09-20T01:06:43.475Z,99.99
2022-09-20T01:07:43.608Z,99.99
2022-09-20T01:08:43.729Z,99.99
2022-09-20T01:09:43.859Z,99.99
2022-09-20T01:10:43.985Z,99.99
2022-09-20T01:11:44.167Z,99.99
2022-09-20T01:12:44.338Z,99.99
2022-09-20T01:13:44.480Z,99.99
2022-09-20T01:14:44.570Z,99.99
2022-09-20T01:15:44.674Z,99.99
2022-09-20T01:16:44.971Z,99.99
2022-09-20T01:17:45.036Z,99.99
2022-09-20T01:18:45.195Z,99.99
2022-09-20T01:19:45.348Z,99.99
2022-09-20T01:20:45.475Z,99.99
2022-09-20T01:21:45.667Z,99.99
2022-09-20T01:22:45.835Z,99.99
2022-09-20T01:23:45.965Z,99.99
2022-09-20T01:24:46.219Z,99.99
2022-09-20T01:25:46.237Z,99.99
2022-09-20T01:26:46.376Z,99.99
2022-09-20T01:27:46.560Z,99.99
2022-09-20T01:28:46.686Z,99.99
2022-09-20T01:29:46.883Z,99.99
2022-09-20T01:30:46.944Z,99.99
2022-09-20T01:31:47.141Z,99.99
2022-09-20T01:32:47.273Z,99.99
2022-09-20T01:33:47.403Z,99.99
2022-09-20T01:34:47.546Z,99.99
2022-09-20T01:35:47.725Z,99.99
2022-09-20T01:36:47.852Z,99.99
2022-09-20T01:37:47.992Z,99.99
2022-09-20T01:38:48.145Z,99.99
2022-09-20T01:39:48.265Z,99.99
2022-09-20T01:40:48.489Z,99.99
2022-09-20T01:41:48.493Z,99.99
2022-09-20T01:42:48.653Z,99.99
2022-09-20T01:43:48.785Z,99.99
2022-09-20T01:44:48.904Z,99.99
2022-09-20T01:45:49.127Z,99.99
2022-09-20T01:46:49.176Z,99.99
2022-09-20T01:47:49.341Z,99.99
2022-09-20T01:48:49.480Z,99.99
2022-09-20T01:49:49.614Z,99.99
2022-09-20T01:50:49.761Z,99.99
2022-09-20T01:51:49.909Z,99.99
2022-09-20T01:52:50.094Z,99.99
2022-09-20T01:53:50.274Z,99.99
2022-09-20T01:54:50.382Z,99.99
2022-09-20T01:55:50.540Z,99.99
2022-09-20T01:56:50.682Z,99.99
2022-09-20T01:57:50.862Z,99.99
2022-09-20T01:59:07.283Z,99.99
2022-09-20T01:59:52.149Z,99.99
2022-09-20T02:00:51.329Z,99.99
2022-09-20T02:01:51.523Z,99.99
2022-09-20T02:02:51.653Z,99.99
2022-09-20T02:03:51.751Z,99.99
2022-09-20T02:04:51.923Z,99.99
2022-09-20T02:05:52.051Z,99.99
2022-09-20T02:06:52.179Z,99.99
2022-09-20T02:07:52.330Z,99.99
2022-09-20T02:08:52.503Z,99.99
2022-09-20T02:09:52.631Z,99.99
2022-09-20T02:10:52.759Z,99.99
2022-09-20T02:11:52.881Z,99.99
2022-09-20T02:12:53.032Z,99.99
2022-09-20T02:13:53.220Z,99.99
2022-09-20T02:14:53.331Z,99.99
2022-09-20T02:15:53.446Z,99.99
2022-09-20T02:16:53.660Z,99.99
2022-09-20T02:17:53.768Z,99.99
2022-09-20T02:18:53.927Z,99.99
2022-09-20T02:19:54.067Z,99.99
2022-09-20T02:20:54.228Z,99.99
2022-09-20T02:21:54.349Z,99.99
2022-09-20T02:22:54.505Z,99.99
2022-09-20T02:23:54.673Z,99.99
2022-09-20T02:24:54.724Z,99.99
2022-09-20T02:25:54.875Z,99.99
2022-09-20T02:26:55.030Z,99.99
2022-09-20T02:27:55.169Z,99.99
2022-09-20T02:28:55.335Z,99.99
2022-09-20T02:29:55.496Z,99.99
2022-09-20T02:30:55.669Z,99.99
2022-09-20T02:31:55.859Z,99.99
2022-09-20T02:32:56.032Z,99.99
2022-09-20T02:33:56.076Z,99.99
2022-09-20T02:34:56.247Z,99.99
2022-09-20T02:35:56.397Z,99.99
2022-09-20T02:36:56.527Z,99.99
2022-09-20T02:37:56.716Z,99.99
2022-09-20T02:38:56.842Z,99.99
2022-09-20T02:39:57.028Z,99.99
2022-09-20T02:40:57.073Z,99.99
2022-09-20T02:41:57.291Z,99.99
2022-09-20T02:42:57.427Z,99.99
2022-09-20T02:43:57.567Z,99.99
2022-09-20T02:44:57.745Z,99.99
2022-09-20T02:45:57.874Z,99.99
2022-09-20T02:46:57.934Z,99.99
2022-09-20T02:47:58.076Z,99.99
2022-09-20T02:48:58.233Z,99.99
2022-09-20T02:49:58.405Z,99.99
2022-09-20T02:50:58.495Z,99.99
2022-09-20T02:51:58.635Z,99.99
2022-09-20T02:52:58.786Z,99.99
2022-09-20T02:53:58.934Z,99.99
2022-09-20T02:54:59.072Z,99.99
2022-09-20T02:55:59.242Z,99.99
2022-09-20T02:56:59.332Z,99.99
2022-09-20T02:57:59.477Z,99.99
2022-09-20T02:58:59.662Z,99.99
2022-09-20T02:59:59.754Z,99.99
2022-09-20T03:00:59.922Z,99.99
2022-09-20T03:02:00.137Z,99.99
2022-09-20T03:03:00.191Z,99.99
2022-09-20T03:04:00.342Z,99.99
2022-09-20T03:05:00.512Z,99.99
2022-09-20T03:06:00.673Z,99.99
2022-09-20T03:07:00.791Z,99.99
2022-09-20T03:08:03.062Z,99.99
2022-09-20T03:09:01.092Z,99.99
2022-09-20T03:10:01.252Z,99.99
2022-09-20T03:11:01.364Z,99.99
2022-09-20T03:12:01.506Z,99.99
2022-09-20T03:13:01.652Z,99.99
2022-09-20T03:14:03.254Z,99.99
2022-09-20T03:15:02.153Z,99.99
2022-09-20T03:16:02.094Z,99.99
2022-09-20T03:17:02.361Z,99.99
2022-09-20T03:18:02.401Z,99.99
2022-09-20T03:19:02.500Z,99.99
2022-09-20T03:20:02.632Z,99.99
2022-09-20T03:21:02.784Z,99.99
2022-09-20T03:22:02.950Z,99.99
2022-09-20T03:23:03.069Z,99.99
2022-09-20T03:24:03.224Z,99.99
2022-09-20T03:25:03.352Z,99.99
2022-09-20T03:26:03.490Z,99.99
2022-09-20T03:27:03.630Z,99.99
2022-09-20T03:28:03.770Z,99.99
2022-09-20T03:29:03.909Z,99.99
2022-09-20T03:30:04.031Z,99.99
2022-09-20T03:31:04.191Z,99.99
2022-09-20T03:32:04.386Z,99.99
2022-09-20T03:33:04.469Z,99.99
2022-09-20T03:34:04.600Z,99.99
2022-09-20T03:35:04.809Z,99.99
2022-09-20T03:36:04.911Z,99.99
2022-09-20T03:37:05.029Z,99.99
2022-09-20T03:38:05.166Z,99.99
2022-09-20T03:39:05.279Z,99.99
2022-09-20T03:40:05.460Z,99.99
2022-09-20T03:41:05.506Z,99.99
2022-09-20T03:42:05.638Z,99.99
2022-09-20T03:43:05.854Z,99.99
2022-09-20T03:44:06.069Z,99.99
2022-09-20T03:45:06.099Z,99.99
2022-09-20T03:46:06.292Z,99.99
2022-09-20T03:47:06.355Z,99.99
2022-09-20T03:48:06.517Z,99.99
2022-09-20T03:49:06.687Z,99.99
2022-09-20T03:50:06.807Z,99.99
2022-09-20T03:51:06.936Z,99.99
2022-09-20T03:52:07.069Z,99.99
2022-09-20T03:53:07.185Z,99.99
2022-09-20T03:54:07.332Z,99.99
2022-09-20T03:55:07.457Z,99.99
2022-09-20T03:56:07.598Z,99.99
2022-09-20T03:57:07.731Z,99.99
2022-09-20T03:58:09.026Z,99.99
2022-09-20T03:59:08.090Z,99.99
2022-09-20T04:00:08.148Z,99.99
2022-09-20T04:01:08.394Z,99.99
2022-09-20T04:02:10.010Z,99.99
2022-09-20T04:03:08.613Z,99.99
2022-09-20T04:04:08.756Z,99.99
2022-09-20T04:05:09.589Z,99.99
2022-09-20T04:06:09.027Z,99.99
2022-09-20T04:07:09.172Z,99.99
2022-09-20T04:08:09.313Z,99.99
2022-09-20T04:09:09.475Z,99.99
2022-09-20T04:10:09.638Z,99.99
2022-09-20T04:11:09.746Z,99.99
2022-09-20T04:12:09.881Z,99.99
2022-09-20T04:13:10.046Z,99.99
2022-09-20T04:14:11.524Z,99.99
2022-09-20T04:15:10.337Z,99.99
2022-09-20T04:16:10.540Z,99.99
2022-09-20T04:17:10.595Z,99.99
2022-09-20T04:18:10.726Z,99.99
2022-09-20T04:19:10.842Z,99.99
2022-09-20T04:20:11.001Z,99.99
2022-09-20T04:21:11.123Z,99.99
2022-09-20T04:22:11.244Z,99.99
2022-09-20T04:23:11.362Z,99.99
2022-09-20T04:24:11.490Z,99.99
2022-09-20T04:25:11.676Z,99.99
2022-09-20T04:26:11.752Z,99.99
2022-09-20T04:27:11.899Z,99.99
2022-09-20T04:28:12.042Z,99.99
2022-09-20T04:29:12.133Z,99.99
2022-09-20T04:30:12.264Z,99.99
2022-09-20T04:31:12.424Z,99.99
2022-09-20T04:32:12.778Z,99.99
2022-09-20T04:33:12.729Z,99.99
2022-09-20T04:34:12.881Z,99.99
2022-09-20T04:35:13.015Z,99.99
2022-09-20T04:36:13.140Z,99.99
2022-09-20T04:37:13.301Z,99.99
2022-09-20T04:38:13.425Z,99.99
2022-09-20T04:39:13.540Z,99.99
2022-09-20T04:40:13.789Z,99.99
2022-09-20T04:41:13.855Z,99.99
2022-09-20T04:42:13.981Z,99.99
2022-09-20T04:43:14.092Z,99.99
2022-09-20T04:44:14.268Z,99.99
2022-09-20T04:45:14.401Z,99.99
2022-09-20T04:46:14.654Z,99.99
2022-09-20T04:47:14.680Z,99.99
2022-09-20T04:48:14.810Z,99.99
2022-09-20T04:49:14.930Z,99.99
2022-09-20T04:50:15.050Z,99.99
2022-09-20T04:51:15.177Z,99.99
2022-09-20T04:52:15.297Z,99.99
2022-09-20T04:53:15.442Z,99.99
2022-09-20T04:54:15.552Z,99.99
2022-09-20T04:55:15.688Z,99.99
2022-09-20T04:56:15.837Z,99.99
2022-09-20T04:57:15.979Z,99.99
2022-09-20T04:58:16.162Z,99.99
2022-09-20T04:59:16.238Z,99.99
2022-09-20T05:00:16.489Z,99.99
2022-09-20T05:01:16.823Z,99.99
2022-09-20T05:02:16.804Z,99.99
2022-09-20T05:03:16.799Z,99.99
2022-09-20T05:04:16.939Z,99.99
2022-09-20T05:05:17.074Z,99.99
2022-09-20T05:06:17.210Z,99.99
2022-09-20T05:07:17.371Z,99.99
2022-09-20T05:08:17.563Z,99.99
2022-09-20T05:09:17.676Z,99.99
2022-09-20T05:10:17.798Z,99.99
2022-09-20T05:11:17.919Z,99.99
2022-09-20T05:12:18.048Z,99.99
2022-09-20T05:13:18.178Z,99.99
2022-09-20T05:14:18.428Z,99.99
2022-09-20T05:15:18.508Z,99.99
2022-09-20T05:16:18.738Z,99.99
2022-09-20T05:17:18.755Z,99.99
2022-09-20T05:18:18.887Z,99.99
2022-09-20T05:19:19.048Z,99.99
2022-09-20T05:20:19.216Z,99.99
2022-09-20T05:21:19.343Z,99.99
2022-09-20T05:22:19.475Z,99.99
2022-09-20T05:23:19.620Z,99.99
2022-09-20T05:24:19.757Z,99.99
2022-09-20T05:25:19.843Z,99.99
2022-09-20T05:26:19.985Z,99.99
2022-09-20T05:27:20.100Z,99.99
2022-09-20T05:28:20.249Z,99.99
2022-09-20T05:29:20.344Z,99.99
2022-09-20T05:30:20.488Z,99.99
2022-09-20T05:31:20.659Z,99.99
2022-09-20T05:32:20.758Z,99.99
2022-09-20T05:33:20.924Z,99.99
2022-09-20T05:34:21.084Z,99.99
2022-09-20T05:35:21.272Z,99.99
2022-09-20T05:36:21.457Z,99.99
2022-09-20T05:37:21.518Z,99.99
2022-09-20T05:38:21.700Z,99.99
2022-09-20T05:39:21.771Z,99.99
2022-09-20T05:40:22.010Z,99.99
2022-09-20T05:41:22.074Z,99.99
2022-09-20T05:42:22.215Z,99.99
2022-09-20T05:43:22.361Z,99.99
2022-09-20T05:44:22.494Z,99.99
2022-09-20T05:45:22.642Z,99.99
2022-09-20T05:46:22.747Z,99.99
2022-09-20T05:47:22.905Z,99.99
2022-09-20T05:48:23.032Z,99.99
2022-09-20T05:49:23.166Z,99.99
2022-09-20T05:50:23.314Z,99.99
2022-09-20T05:51:23.503Z,99.99
2022-09-20T05:52:23.574Z,99.99
2022-09-20T05:53:23.703Z,99.99
2022-09-20T05:54:23.844Z,99.99
2022-09-20T05:55:24.063Z,99.99
2022-09-20T05:56:24.104Z,99.99
2022-09-20T05:57:24.232Z,99.99
2022-09-20T05:58:24.364Z,99.99
2022-09-20T05:59:24.543Z,99.99
2022-09-20T06:00:24.624Z,99.99
2022-09-20T06:01:24.831Z,99.99
2022-09-20T06:02:25.007Z,99.99
2022-09-20T06:03:25.039Z,99.99
2022-09-20T06:04:25.180Z,99.99
2022-09-20T06:05:25.333Z,99.99
2022-09-20T06:06:28.060Z,99.99
2022-09-20T06:07:26.581Z,99.99
2022-09-20T06:08:25.713Z,99.99
2022-09-20T06:09:25.856Z,99.99
2022-09-20T06:10:25.992Z,99.99
2022-09-20T06:11:26.193Z,99.99
2022-09-20T06:12:26.275Z,99.99
2022-09-20T06:13:26.360Z,99.99
2022-09-20T06:14:26.505Z,99.99
2022-09-20T06:15:27.403Z,99.99
2022-09-20T06:16:27.087Z,99.99
2022-09-20T06:17:27.231Z,99.99
2022-09-20T06:18:27.079Z,99.99
2022-09-20T06:19:27.202Z,99.99
2022-09-20T06:20:27.437Z,99.99
2022-09-20T06:21:27.509Z,99.99
2022-09-20T06:22:27.673Z,99.99
2022-09-20T06:23:27.811Z,99.99
2022-09-20T06:24:27.971Z,99.99
2022-09-20T06:25:28.130Z,99.99
2022-09-20T06:26:28.269Z,99.99
2022-09-20T06:27:28.443Z,99.99
2022-09-20T06:28:28.551Z,99.99
2022-09-20T06:29:28.650Z,99.99
2022-09-20T06:30:28.821Z,99.99
2022-09-20T06:31:28.911Z,99.99
2022-09-20T06:32:29.059Z,99.99
2022-09-20T06:33:29.154Z,99.99
2022-09-20T06:34:29.258Z,99.99
2022-09-20T06:35:29.372Z,99.99
2022-09-20T06:36:29.554Z,99.99
2022-09-20T06:37:29.650Z,99.99
2022-09-20T06:38:29.758Z,99.99
2022-09-20T06:39:29.903Z,99.99
2022-09-20T06:40:30.066Z,99.99
2022-09-20T06:41:30.168Z,99.99
2022-09-20T06:42:30.268Z,99.99
2022-09-20T06:43:30.367Z,99.99
2022-09-20T06:44:30.467Z,99.99
2022-09-20T06:45:30.628Z,99.99
2022-09-20T06:46:30.720Z,99.99
2022-09-20T06:47:30.868Z,99.99
2022-09-20T06:48:30.968Z,99.99
2022-09-20T06:49:31.141Z,99.99
2022-09-20T06:50:31.229Z,99.99
2022-09-20T06:51:31.335Z,99.99
2022-09-20T06:52:31.488Z,99.99
2022-09-20T06:53:31.610Z,99.99
2022-09-20T06:54:31.722Z,99.99
2022-09-20T06:55:31.848Z,99.99
2022-09-20T06:56:31.968Z,99.99
2022-09-20T06:57:32.118Z,99.99
2022-09-20T06:58:32.270Z,99.99
2022-09-20T06:59:32.419Z,99.99
2022-09-20T07:00:32.529Z,99.99
2022-09-20T07:01:32.670Z,99.99
2022-09-20T07:02:32.793Z,99.99
2022-09-20T07:03:32.877Z,99.99
2022-09-20T07:04:33.029Z,99.99
2022-09-20T07:05:33.147Z,99.99
2022-09-20T07:06:33.279Z,99.99
2022-09-20T07:07:33.369Z,99.99
2022-09-20T07:08:33.465Z,99.99
2022-09-20T07:09:33.626Z,99.99
2022-09-20T07:10:33.730Z,99.99
2022-09-20T07:11:33.870Z,99.99
2022-09-20T07:12:33.937Z,99.99
2022-09-20T07:13:34.090Z,99.99
2022-09-20T07:14:34.185Z,99.99
2022-09-20T07:15:34.334Z,99.99
2022-09-20T07:16:34.501Z,99.99
2022-09-20T07:17:34.590Z,99.99
2022-09-20T07:18:34.687Z,99.99
2022-09-20T07:19:34.838Z,99.99
2022-09-20T07:20:34.950Z,99.99
2022-09-20T07:21:35.105Z,99.99
2022-09-20T07:22:35.205Z,99.99
2022-09-20T07:23:36.108Z,99.99
2022-09-20T07:24:36.927Z,99.99
2022-09-20T07:25:35.648Z,99.99
2022-09-20T07:26:35.746Z,99.99
2022-09-20T07:27:35.877Z,99.99
2022-09-20T07:28:35.989Z,99.99
2022-09-20T07:29:36.138Z,99.99
2022-09-20T07:30:36.236Z,99.99
2022-09-20T07:31:36.499Z,99.99
2022-09-20T07:32:36.525Z,99.99
2022-09-20T07:33:36.674Z,99.99
2022-09-20T07:34:36.784Z,99.99
2022-09-20T07:35:36.966Z,99.99
2022-09-20T07:36:37.057Z,99.99
2022-09-20T07:37:37.399Z,99.99
2022-09-20T07:38:37.277Z,99.99
2022-09-20T07:39:37.426Z,99.99
2022-09-20T07:40:37.614Z,99.99
2022-09-20T07:41:37.685Z,99.99
2022-09-20T07:42:37.767Z,99.99
2022-09-20T07:43:37.886Z,99.99
2022-09-20T07:44:38.034Z,99.99
2022-09-20T07:45:38.165Z,99.99
2022-09-20T07:46:38.424Z,99.99
2022-09-20T07:47:38.434Z,99.99
2022-09-20T07:48:38.554Z,99.99
2022-09-20T07:49:38.667Z,99.99
2022-09-20T07:50:38.776Z,99.99
2022-09-20T07:51:38.917Z,99.81
2022-09-20T07:52:38.995Z,99.61
2022-09-20T07:53:39.157Z,99.99
2022-09-20T07:54:39.244Z,99.77
2022-09-20T07:55:39.395Z,99.36
2022-09-20T07:56:39.515Z,98.95
2022-09-20T07:57:39.627Z,98.65
2022-09-20T07:58:39.737Z,98.54
2022-09-20T07:59:39.855Z,98.54
2022-09-20T08:00:39.956Z,98.70
2022-09-20T08:01:40.817Z,98.91
2022-09-20T08:02:40.340Z,97.78
2022-09-20T08:03:40.392Z,97.07
2022-09-20T08:04:40.498Z,97.02
2022-09-20T08:05:40.647Z,97.17
2022-09-20T08:06:40.778Z,97.28
2022-09-20T08:07:40.886Z,97.17
2022-09-20T08:08:40.975Z,96.77
2022-09-20T08:09:41.125Z,96.67
2022-09-20T08:10:41.237Z,96.46
2022-09-20T08:11:41.397Z,95.85
2022-09-20T08:14:42.715Z,95.91
2022-09-20T08:15:41.867Z,95.46
2022-09-20T08:16:42.229Z,95.15
2022-09-20T08:17:42.114Z,94.54
2022-09-20T08:18:42.251Z,94.64
2022-09-20T08:19:42.388Z,94.34
2022-09-20T08:20:42.479Z,94.85
2022-09-20T08:21:42.602Z,94.34
2022-09-20T08:22:42.723Z,94.24
2022-09-20T08:23:42.864Z,94.64
2022-09-20T08:24:42.956Z,94.85
2022-09-20T08:25:43.099Z,94.74
2022-09-20T08:26:43.463Z,94.34
2022-09-20T08:27:43.465Z,93.93
2022-09-20T08:28:43.517Z,94.34
2022-09-20T08:29:43.631Z,94.29
2022-09-20T08:30:43.738Z,93.79
2022-09-20T08:31:43.991Z,92.36
2022-09-20T08:32:44.028Z,93.28
2022-09-20T08:33:44.122Z,93.24
2022-09-20T08:34:49.202Z,93.44
2022-09-20T08:35:45.367Z,91.87
2022-09-20T08:36:44.515Z,90.75
2022-09-20T08:37:44.644Z,88.93
2022-09-20T08:40:01.190Z,90.47
2022-09-20T08:40:46.036Z,89.65
2022-09-20T08:41:45.112Z,88.20
2022-09-20T08:42:45.277Z,87.89
2022-09-20T08:43:45.775Z,86.88
2022-09-20T08:44:45.771Z,87.18
2022-09-20T08:45:45.625Z,86.91
2022-09-20T08:46:45.913Z,86.88
2022-09-20T08:47:46.164Z,85.86
2022-09-20T08:48:45.973Z,85.62
2022-09-20T08:49:46.592Z,84.81
2022-09-20T08:50:46.202Z,84.67
2022-09-20T08:51:48.553Z,84.53
2022-09-20T08:52:47.317Z,83.72
2022-09-20T08:53:49.264Z,83.61
2022-09-20T08:54:46.704Z,84.33
2022-09-20T08:55:46.833Z,83.61
2022-09-20T08:56:46.957Z,82.40
2022-09-20T08:57:47.055Z,82.50
2022-09-20T08:58:47.164Z,81.69
2022-09-20T08:59:47.481Z,80.78
2022-09-20T09:00:47.475Z,81.02
2022-09-20T09:01:47.560Z,82.20
2022-09-20T09:02:47.645Z,82.60
2022-09-20T09:03:47.803Z,81.69
2022-09-20T09:04:47.923Z,81.73
2022-09-20T09:05:48.064Z,82.44
2022-09-20T09:06:48.142Z,82.03
2022-09-20T09:07:48.304Z,81.12
2022-09-20T09:08:48.843Z,80.25
2022-09-20T09:09:49.296Z,81.23
2022-09-20T09:10:48.662Z,81.43
2022-09-20T09:11:48.848Z,80.62
2022-09-20T09:12:49.080Z,81.02
2022-09-20T09:13:49.083Z,80.64
2022-09-20T09:14:49.167Z,79.96
2022-09-20T09:15:49.332Z,77.19
2022-09-20T09:16:49.469Z,77.60
2022-09-20T09:17:49.545Z,77.02
2022-09-20T09:18:49.662Z,77.59
2022-09-20T09:19:49.795Z,75.34
2022-09-20T09:20:49.981Z,75.40
2022-09-20T09:21:51.015Z,75.40
2022-09-20T09:22:50.324Z,74.15
2022-09-20T09:23:50.317Z,72.34
2022-09-20T09:24:50.436Z,71.17
2022-09-20T09:25:50.576Z,71.17
2022-09-20T09:26:50.676Z,72.41
2022-09-20T09:27:50.787Z,73.52
2022-09-20T09:28:50.883Z,73.85
2022-09-20T09:29:51.037Z,74.12
2022-09-20T09:30:51.144Z,71.33
2022-09-20T09:31:51.410Z,71.33
2022-09-20T09:32:51.415Z,71.03
2022-09-20T09:33:51.542Z,70.93
2022-09-20T09:34:51.654Z,70.83
2022-09-20T09:35:51.825Z,71.30
2022-09-20T09:36:51.927Z,70.70
2022-09-20T09:37:52.045Z,68.18
2022-09-20T09:38:52.148Z,69.82
2022-09-20T09:39:52.276Z,65.73
2022-09-20T09:40:52.373Z,66.44
2022-09-20T09:41:52.514Z,67.71
2022-09-20T09:42:52.598Z,63.96
2022-09-20T09:43:52.830Z,63.96
2022-09-20T09:44:52.873Z,65.70
2022-09-20T09:45:53.016Z,67.31
2022-09-20T09:46:53.090Z,67.04
2022-09-20T09:47:53.185Z,66.17
2022-09-20T09:48:53.307Z,66.44
2022-09-20T09:49:57.664Z,65.01
2022-09-20T09:50:54.568Z,63.57
2022-09-20T09:51:53.667Z,63.47
2022-09-20T09:52:53.785Z,62.97
2022-09-20T09:53:53.926Z,63.81
2022-09-20T09:54:54.032Z,63.10
2022-09-20T09:55:54.125Z,64.68
2022-09-20T09:56:54.238Z,63.61
2022-09-20T09:57:54.397Z,61.35
2022-09-20T09:58:54.565Z,59.77
2022-09-20T09:59:54.651Z,58.24
2022-09-20T10:00:54.778Z,58.04
2022-09-20T10:01:54.910Z,57.93
2022-09-20T10:02:55.001Z,59.01
2022-09-20T10:03:55.147Z,56.46
2022-09-20T10:04:55.343Z,55.91
2022-09-20T10:05:55.397Z,56.44
2022-09-20T10:06:55.485Z,59.28
2022-09-20T10:07:55.640Z,62.47
2022-09-20T10:08:55.757Z,61.60
2022-09-20T10:09:55.875Z,61.55
2022-09-20T10:10:56.156Z,63.17
2022-09-20T10:11:56.142Z,64.20
2022-09-20T10:12:56.269Z,64.90
2022-09-20T10:13:56.356Z,66.91
2022-09-20T10:14:56.469Z,65.80
2022-09-20T10:15:56.640Z,65.64
2022-09-20T10:16:56.853Z,65.64
2022-09-20T10:17:56.879Z,66.64
2022-09-20T10:18:56.996Z,65.84
2022-09-20T10:19:57.134Z,64.73
2022-09-20T10:20:57.238Z,65.64
2022-09-20T10:21:57.335Z,66.17
2022-09-20T10:23:29.974Z,67.18
2022-09-20T10:24:03.569Z,66.07
2022-09-20T10:24:59.328Z,65.97
2022-09-20T10:25:57.887Z,66.33
2022-09-20T10:26:57.971Z,67.97
2022-09-20T10:27:58.112Z,67.80
2022-09-20T10:28:58.188Z,68.44
2022-09-20T10:29:58.351Z,69.05
2022-09-20T10:30:58.592Z,68.74
2022-09-20T10:31:58.588Z,69.35
2022-09-20T10:32:58.849Z,69.92
2022-09-20T10:33:58.822Z,69.52
2022-09-20T10:34:58.950Z,68.48
2022-09-20T10:35:59.164Z,68.28
2022-09-20T10:36:59.130Z,67.80
2022-09-20T10:37:59.310Z,66.83
2022-09-20T10:38:59.382Z,68.77
2022-09-20T10:39:59.736Z,70.15
2022-09-20T10:40:59.667Z,69.85
2022-09-20T10:41:59.852Z,68.57
2022-09-20T10:42:59.928Z,69.18
2022-09-20T10:44:04.806Z,69.85
2022-09-20T10:45:01.186Z,69.85
2022-09-20T10:46:21.059Z,68.65
2022-09-20T10:47:01.497Z,68.65
2022-09-20T10:48:00.600Z,67.23
2022-09-20T10:49:00.680Z,67.80
2022-09-20T10:50:00.959Z,66.74
2022-09-20T10:51:01.960Z,65.59
2022-09-20T10:52:01.070Z,64.99
2022-09-20T10:53:01.248Z,65.30
2022-09-20T10:54:01.361Z,65.09
2022-09-20T10:55:01.470Z,65.73
2022-09-20T10:56:01.621Z,65.59
2022-09-20T10:57:01.748Z,64.29
2022-09-20T10:58:01.870Z,64.45
2022-09-20T10:59:01.978Z,65.89
2022-09-20T11:00:02.086Z,66.90
2022-09-20T11:01:02.270Z,66.70
2022-09-20T11:02:02.318Z,67.16
2022-09-20T11:03:02.445Z,68.61
2022-09-20T11:04:02.521Z,69.01
2022-09-20T11:05:02.668Z,68.24
2022-09-20T11:06:02.782Z,69.65
2022-09-20T11:07:02.964Z,69.45
2022-09-20T11:08:03.071Z,70.36
2022-09-20T11:09:03.180Z,71.00
2022-09-20T11:10:03.271Z,71.50
2022-09-20T11:11:03.384Z,71.30
2022-09-20T11:12:03.518Z,72.14
2022-09-20T11:13:03.679Z,71.64
2022-09-20T11:14:03.771Z,72.04
2022-09-20T11:15:04.072Z,71.87
2022-09-20T11:16:04.044Z,73.08
2022-09-20T11:17:04.139Z,72.99
2022-09-20T11:18:04.300Z,72.68
2022-09-20T11:19:06.401Z,73.19
2022-09-20T11:20:07.504Z,73.39
2022-09-20T11:21:04.679Z,73.69
2022-09-20T11:22:04.902Z,73.49
2022-09-20T11:23:04.952Z,73.59
2022-09-20T11:24:05.155Z,74.16
2022-09-20T11:25:05.587Z,74.66
2022-09-20T11:26:05.381Z,73.46
2022-09-20T11:27:05.441Z,72.24
2022-09-20T11:28:05.548Z,73.46
2022-09-20T11:29:05.709Z,73.96
2022-09-20T11:30:06.420Z,74.26
2022-09-20T11:31:05.948Z,73.55
2022-09-20T11:32:06.101Z,73.86
2022-09-20T11:33:06.170Z,72.04
2022-09-20T11:34:06.362Z,72.55
2022-09-20T11:35:06.398Z,72.34
2022-09-20T11:36:06.541Z,72.75
2022-09-20T11:37:06.728Z,71.64
2022-09-20T11:38:07.001Z,71.64
2022-09-20T11:39:07.190Z,72.24
2022-09-20T11:40:08.051Z,72.31
2022-09-20T11:41:07.330Z,71.70
2022-09-20T11:42:07.324Z,71.67
2022-09-20T11:43:07.488Z,71.37
2022-09-20T11:44:07.590Z,70.09
2022-09-20T11:45:07.822Z,71.37
2022-09-20T11:46:07.846Z,71.57
2022-09-20T11:47:07.922Z,70.96
2022-09-20T11:48:08.063Z,70.96
2022-09-20T11:49:08.211Z,70.86
2022-09-20T11:50:08.381Z,71.64
2022-09-20T11:51:08.441Z,71.03
2022-09-20T11:52:08.543Z,70.49
2022-09-20T11:53:08.682Z,69.18
2022-09-20T11:54:08.866Z,67.84
2022-09-20T11:55:09.010Z,69.15
2022-09-20T11:56:09.118Z,68.74
2022-09-20T11:57:09.219Z,67.88
2022-09-20T11:58:09.360Z,61.84
2022-09-20T11:59:09.461Z,60.05
2022-09-20T12:00:09.990Z,57.31
2022-09-20T12:01:09.702Z,57.26
2022-09-20T12:02:09.941Z,55.85
2022-09-20T12:03:10.070Z,55.02
2022-09-20T12:04:31.311Z,54.32
2022-09-20T12:05:11.154Z,52.27
2022-09-20T12:06:10.311Z,51.97
2022-09-20T12:07:14.458Z,51.03
2022-09-20T12:08:11.513Z,52.79
2022-09-20T12:09:10.641Z,53.14
2022-09-20T12:10:10.784Z,52.62
2022-09-20T12:11:10.954Z,50.72
2022-09-20T12:12:11.029Z,53.17
2022-09-20T12:13:11.169Z,52.72
2022-09-20T12:14:11.315Z,54.30
2022-09-20T12:15:11.463Z,56.15
2022-09-20T12:16:11.605Z,57.46
2022-09-20T12:17:11.683Z,58.22
2022-09-20T12:18:11.784Z,59.14
2022-09-20T12:19:11.931Z,59.20
2022-09-20T12:20:12.029Z,59.33
2022-09-20T12:21:15.602Z,60.84
2022-09-20T12:22:12.312Z,60.57
2022-09-20T12:23:12.794Z,61.10
2022-09-20T12:24:12.553Z,63.24
2022-09-20T12:25:12.812Z,63.37
2022-09-20T12:26:12.802Z,62.87
2022-09-20T12:27:12.963Z,63.81
2022-09-20T12:28:13.053Z,65.15
2022-09-20T12:29:13.193Z,65.15
2022-09-20T12:30:13.314Z,65.01
2022-09-20T12:31:13.489Z,65.01
2022-09-20T12:32:13.575Z,65.82
2022-09-20T12:33:13.703Z,65.42
2022-09-20T12:34:13.793Z,65.42
2022-09-20T12:35:13.946Z,65.39
2022-09-20T12:36:14.044Z,64.55
2022-09-20T12:37:14.195Z,63.92
2022-09-20T12:38:14.295Z,64.26
2022-09-20T12:39:20.709Z,62.32
2022-09-20T12:40:15.661Z,61.71
2022-09-20T12:41:14.696Z,61.58
2022-09-20T12:42:16.725Z,60.65
2022-09-20T12:43:14.933Z,59.32
2022-09-20T12:44:15.088Z,57.68
2022-09-20T12:45:15.202Z,56.24
2022-09-20T12:46:15.377Z,55.37
2022-09-20T12:47:15.453Z,55.82
2022-09-20T12:48:15.599Z,54.22
2022-09-20T12:49:15.743Z,55.05
2022-09-20T12:50:15.869Z,57.52
2022-09-20T12:51:15.973Z,55.57
2022-09-20T12:52:16.115Z,54.22
2022-09-20T12:53:16.335Z,53.92
2022-09-20T12:54:16.366Z,52.79
2022-09-20T12:55:16.526Z,53.49
2022-09-20T12:56:16.634Z,52.87
2022-09-20T12:57:16.798Z,49.41